createdAt,value
2019-02-07T00:00:53.970Z,101224.08
2019-02-07T00:01:58.548Z,101229.95
2019-02-07T00:03:02.872Z,101226.30
2019-02-07T00:04:07.398Z,101231.95
2019-02-07T00:05:11.719Z,101220.30
2019-02-07T00:06:16.639Z,101219.49
2019-02-07T00:07:20.936Z,101218.08
2019-02-07T00:08:25.234Z,101214.78
2019-02-07T00:09:30.093Z,101214.65
2019-02-07T00:10:36.851Z,101210.72
2019-02-07T00:11:40.903Z,101207.73
2019-02-07T00:12:45.467Z,101204.97
2019-02-07T00:13:50.135Z,101199.04
2019-02-07T00:14:54.838Z,101194.94
2019-02-07T00:15:59.470Z,101190.88
2019-02-07T00:17:03.794Z,101190.28
2019-02-07T00:18:08.349Z,101185.70
2019-02-07T00:19:12.913Z,101181.65
2019-02-07T00:20:17.500Z,101187.02
2019-02-07T00:21:22.345Z,101178.76
2019-02-07T00:22:26.946Z,101170.48
2019-02-07T00:23:31.240Z,101181.30
2019-02-07T00:24:42.811Z,101173.66
2019-02-07T00:25:42.657Z,101167.66
2019-02-07T00:26:47.342Z,101165.72
2019-02-07T00:27:51.953Z,101166.99
2019-02-07T00:28:56.537Z,101157.69
2019-02-07T00:30:01.124Z,101158.88
2019-02-07T00:31:05.831Z,101159.91
2019-02-07T00:32:10.850Z,101160.37
2019-02-07T00:33:14.916Z,101150.75
2019-02-07T00:34:19.500Z,101153.77
2019-02-07T00:35:24.321Z,101151.42
2019-02-07T00:36:28.636Z,101146.38
2019-02-07T00:37:33.298Z,101148.05
2019-02-07T00:38:38.425Z,101143.86
2019-02-07T00:39:43.035Z,101144.80
2019-02-07T00:40:47.900Z,101145.35
2019-02-07T00:41:51.954Z,101133.06
2019-02-07T00:42:56.055Z,101128.41
2019-02-07T00:44:00.652Z,101134.59
2019-02-07T00:45:05.527Z,101126.23
2019-02-07T00:46:09.822Z,101122.59
2019-02-07T00:47:14.637Z,111430.36
2019-02-07T00:48:19.454Z,111430.36
2019-02-07T00:52:01.846Z,111430.36
2019-02-07T00:53:07.860Z,111430.36
2019-02-07T00:54:13.090Z,111430.36
2019-02-07T01:13:41.847Z,111430.36
2019-02-07T01:45:12.840Z,111430.36
2019-02-07T01:46:12.565Z,101130.20
2019-02-07T01:47:17.248Z,101036.13
2019-02-07T01:48:21.802Z,101037.37
2019-02-07T01:49:26.391Z,101034.52
2019-02-07T01:50:30.948Z,101047.45
2019-02-07T01:51:36.137Z,101035.42
2019-02-07T01:52:40.196Z,101033.98
2019-02-07T01:53:44.880Z,101027.44
2019-02-07T01:54:49.564Z,101028.95
2019-02-07T01:55:53.839Z,101029.34
2019-02-07T01:56:58.704Z,101024.64
2019-02-07T01:58:03.286Z,101023.14
2019-02-07T01:59:07.849Z,101020.83
2019-02-07T02:00:14.197Z,101028.44
2019-02-07T02:01:18.504Z,101024.72
2019-02-07T02:02:23.078Z,101013.80
2019-02-07T02:03:27.649Z,101017.33
2019-02-07T02:04:34.541Z,101013.75
2019-02-07T02:05:39.171Z,101014.31
2019-02-07T02:06:43.727Z,101007.84
2019-02-07T02:07:48.291Z,101009.52
2019-02-07T02:08:53.107Z,100996.30
2019-02-07T02:09:57.687Z,101002.33
2019-02-07T02:11:02.058Z,101004.48
2019-02-07T02:12:06.426Z,100999.45
2019-02-07T02:13:10.768Z,101004.01
2019-02-07T02:14:15.092Z,100997.41
2019-02-07T02:15:24.645Z,100993.51
2019-02-07T02:16:27.616Z,100992.06
2019-02-07T02:17:31.922Z,100994.61
2019-02-07T02:18:36.395Z,100992.59
2019-02-07T02:19:40.977Z,100988.41
2019-02-07T02:20:45.572Z,100987.56
2019-02-07T02:21:50.195Z,100980.08
2019-02-07T02:22:55.098Z,100983.13
2019-02-07T02:23:59.642Z,100982.67
2019-02-07T02:25:04.830Z,100980.65
2019-02-07T02:26:09.402Z,100980.92
2019-02-07T02:27:13.986Z,100977.80
2019-02-07T02:28:18.836Z,100968.53
2019-02-07T02:29:23.631Z,100967.94
2019-02-07T02:30:31.005Z,100964.52
2019-02-07T02:31:36.047Z,100960.88
2019-02-07T02:32:40.344Z,100961.52
2019-02-07T02:33:44.924Z,100957.16
2019-02-07T02:34:49.544Z,100960.69
2019-02-07T02:35:54.115Z,100955.78
2019-02-07T02:36:58.411Z,100960.88
2019-02-07T02:38:02.732Z,100962.50
2019-02-07T02:39:09.196Z,100960.52
2019-02-07T02:40:13.528Z,100960.59
2019-02-07T02:41:18.106Z,100952.34
2019-02-07T02:42:22.498Z,100957.67
2019-02-07T02:43:27.417Z,100947.30
2019-02-07T02:44:31.705Z,100943.82
2019-02-07T02:45:37.843Z,100939.42
2019-02-07T02:46:42.278Z,100940.53
2019-02-07T02:47:47.036Z,100939.02
2019-02-07T02:48:52.109Z,100934.89
2019-02-07T02:49:56.784Z,100939.42
2019-02-07T02:51:01.109Z,100931.27
2019-02-07T02:52:05.666Z,100930.03
2019-02-07T02:53:09.972Z,100930.97
2019-02-07T02:54:51.682Z,100919.22
2019-02-07T02:55:58.638Z,100919.22
2019-02-07T02:57:03.012Z,100913.70
2019-02-07T02:58:07.308Z,100914.38
2019-02-07T02:59:11.954Z,100913.57
2019-02-07T03:00:19.074Z,100907.56
2019-02-07T03:01:42.446Z,100900.72
2019-02-07T03:03:04.070Z,100898.98
2019-02-07T03:04:39.135Z,100905.05
2019-02-07T03:05:54.671Z,100909.88
2019-02-07T03:07:23.751Z,100904.87
2019-02-07T03:08:41.477Z,100900.98
2019-02-07T03:10:03.805Z,100902.54
2019-02-07T03:11:41.593Z,100898.37
2019-02-07T03:13:03.344Z,100902.11
2019-02-07T03:14:14.639Z,100895.35
2019-02-07T03:15:49.330Z,100892.70
2019-02-07T03:16:58.510Z,100892.80
2019-02-07T03:18:33.768Z,100877.00
2019-02-07T03:19:56.557Z,100887.14
2019-02-07T03:21:21.809Z,100875.16
2019-02-07T03:22:35.035Z,100877.90
2019-02-07T03:23:57.438Z,100869.66
2019-02-07T03:25:18.852Z,100872.27
2019-02-07T03:26:34.427Z,100866.61
2019-02-07T03:27:56.545Z,100865.77
2019-02-07T03:29:19.106Z,100864.36
2019-02-07T03:30:42.282Z,100864.73
2019-02-07T03:32:02.379Z,100867.19
2019-02-07T03:33:16.242Z,100865.85
2019-02-07T03:34:52.010Z,100857.98
2019-02-07T03:36:16.192Z,100864.42
2019-02-07T03:37:48.424Z,100850.05
2019-02-07T03:39:01.949Z,100842.73
2019-02-07T03:40:27.214Z,100848.11
2019-02-07T03:41:48.886Z,100843.47
2019-02-07T03:43:15.351Z,100843.47
2019-02-07T03:44:41.626Z,100843.22
2019-02-07T03:46:03.557Z,100844.03
2019-02-07T03:47:14.601Z,100840.27
2019-02-07T03:48:41.286Z,100840.67
2019-02-07T03:49:58.865Z,100815.81
2019-02-07T03:51:31.009Z,100832.28
2019-02-07T03:52:46.999Z,100818.57
2019-02-07T03:54:09.921Z,100818.72
2019-02-07T03:55:38.975Z,100819.53
2019-02-07T03:57:00.561Z,100814.80
2019-02-07T03:58:20.646Z,100814.74
2019-02-07T03:59:39.496Z,100807.69
2019-02-07T04:01:02.514Z,100805.95
2019-02-07T04:02:24.554Z,100803.45
2019-02-07T04:03:45.697Z,100802.05
2019-02-07T04:05:09.397Z,100819.78
2019-02-07T04:06:21.082Z,100797.08
2019-02-07T04:07:47.356Z,100794.78
2019-02-07T04:09:19.729Z,100784.19
2019-02-07T04:10:34.723Z,100796.00
2019-02-07T04:11:54.796Z,100787.73
2019-02-07T04:13:17.179Z,100798.30
2019-02-07T04:14:49.308Z,100792.72
2019-02-07T04:16:17.879Z,100794.61
2019-02-07T04:17:46.915Z,100784.77
2019-02-07T04:19:03.978Z,100787.67
2019-02-07T04:20:27.229Z,100775.84
2019-02-07T04:21:53.756Z,100778.53
2019-02-07T04:23:16.370Z,100772.67
2019-02-07T04:24:49.227Z,100768.66
2019-02-07T04:26:11.108Z,100767.91
2019-02-07T04:27:43.100Z,100770.11
2019-02-07T04:29:12.962Z,100767.16
2019-02-07T04:30:41.976Z,100762.48
2019-02-07T04:32:15.322Z,100756.50
2019-02-07T04:33:38.001Z,100764.16
2019-02-07T04:35:16.902Z,100771.47
2019-02-07T04:36:45.951Z,100763.81
2019-02-07T04:38:05.861Z,100761.39
2019-02-07T04:39:47.462Z,100754.66
2019-02-07T04:41:22.583Z,100753.11
2019-02-07T04:42:52.372Z,100745.97
2019-02-07T04:44:18.880Z,100746.13
2019-02-07T04:45:41.542Z,100743.30
2019-02-07T04:46:58.887Z,100750.34
2019-02-07T04:48:40.607Z,100741.19
2019-02-07T04:50:10.670Z,100735.56
2019-02-07T04:51:29.371Z,100740.61
2019-02-07T04:53:01.947Z,100733.55
2019-02-07T04:54:25.348Z,100733.66
2019-02-07T04:55:47.415Z,100726.62
2019-02-07T04:57:12.545Z,100732.08
2019-02-07T04:58:41.850Z,100726.76
2019-02-07T04:59:58.008Z,100716.48
2019-02-07T05:01:33.174Z,100735.05
2019-02-07T05:03:04.880Z,100723.31
2019-02-07T05:04:19.948Z,100721.24
2019-02-07T05:05:47.690Z,100711.71
2019-02-07T05:07:13.945Z,100713.94
2019-02-07T05:08:30.894Z,100710.95
2019-02-07T05:10:12.524Z,100706.92
2019-02-07T05:11:45.606Z,100707.30
2019-02-07T05:13:08.920Z,100697.55
2019-02-07T05:14:41.691Z,100697.67
2019-02-07T05:16:20.285Z,100697.55
2019-02-07T05:17:49.956Z,100697.50
2019-02-07T05:19:14.113Z,100681.37
2019-02-07T05:20:36.284Z,100686.23
2019-02-07T05:21:58.978Z,100695.02
2019-02-07T05:23:25.822Z,100678.58
2019-02-07T05:24:48.582Z,100674.28
2019-02-07T05:26:17.452Z,100689.55
2019-02-07T05:27:48.066Z,100679.64
2019-02-07T05:29:11.517Z,100670.06
2019-02-07T05:30:33.181Z,100664.14
2019-02-07T05:31:59.489Z,100668.96
2019-02-07T05:33:17.398Z,100661.30
2019-02-07T05:34:32.616Z,100654.67
2019-02-07T05:35:56.160Z,100667.44
2019-02-07T05:37:15.973Z,100661.51
2019-02-07T05:38:33.184Z,100665.70
2019-02-07T05:39:58.377Z,100656.80
2019-02-07T05:41:24.735Z,100655.59
2019-02-07T05:42:46.580Z,100650.42
2019-02-07T05:44:09.010Z,100650.95
2019-02-07T05:45:28.630Z,100644.22
2019-02-07T05:46:51.349Z,100644.51
2019-02-07T05:48:20.196Z,100641.42
2019-02-07T05:49:46.875Z,100636.39
2019-02-07T05:51:02.247Z,100633.83
2019-02-07T05:52:15.026Z,100641.06
2019-02-07T05:53:41.548Z,100630.87
2019-02-07T05:55:03.875Z,100635.09
2019-02-07T05:56:39.217Z,100624.65
2019-02-07T05:58:01.249Z,100624.23
2019-02-07T05:59:23.331Z,100622.60
2019-02-07T06:00:47.267Z,100614.27
2019-02-07T06:02:13.777Z,100607.97
2019-02-07T06:03:37.023Z,100611.40
2019-02-07T06:04:55.600Z,100606.86
2019-02-07T06:06:27.864Z,100610.70
2019-02-07T06:07:50.353Z,100612.48
2019-02-07T06:09:12.453Z,100600.11
2019-02-07T06:10:35.904Z,100601.46
2019-02-07T06:12:02.137Z,100593.80
2019-02-07T06:13:28.309Z,100591.32
2019-02-07T06:14:54.104Z,100590.09
2019-02-07T06:16:09.693Z,100595.53
2019-02-07T06:17:31.889Z,100593.58
2019-02-07T06:19:03.319Z,100593.94
2019-02-07T06:20:25.458Z,100607.34
2019-02-07T06:21:43.010Z,100590.20
2019-02-07T06:23:05.946Z,100596.34
2019-02-07T06:24:37.912Z,100586.17
2019-02-07T06:26:01.239Z,100580.96
2019-02-07T06:27:37.317Z,100592.16
2019-02-07T06:28:59.338Z,100577.84
2019-02-07T06:30:21.097Z,100585.05
2019-02-07T06:31:53.390Z,100581.73
2019-02-07T06:33:14.837Z,100583.02
2019-02-07T06:34:43.823Z,100587.97
2019-02-07T06:35:57.748Z,100578.67
2019-02-07T06:37:12.575Z,100576.50
2019-02-07T06:38:35.533Z,100582.35
2019-02-07T06:40:18.124Z,100590.72
2019-02-07T06:41:47.664Z,100582.64
2019-02-07T06:43:00.062Z,100576.09
2019-02-07T06:44:22.062Z,100581.53
2019-02-07T06:45:46.026Z,100578.61
2019-02-07T06:47:13.238Z,100581.98
2019-02-07T06:48:31.136Z,100579.88
2019-02-07T06:49:59.744Z,100577.23
2019-02-07T06:51:12.191Z,100581.53
2019-02-07T06:52:27.141Z,100580.25
2019-02-07T06:53:41.172Z,100578.66
2019-02-07T06:55:03.782Z,100578.56
2019-02-07T06:56:32.797Z,100579.06
2019-02-07T06:57:58.926Z,100577.38
2019-02-07T06:59:19.627Z,100571.49
2019-02-07T07:00:38.354Z,100573.55
2019-02-07T07:01:55.169Z,100561.77
2019-02-07T07:03:23.499Z,100576.75
2019-02-07T07:04:58.458Z,100571.23
2019-02-07T07:06:11.568Z,100564.06
2019-02-07T07:07:47.016Z,100565.74
2019-02-07T07:09:19.448Z,100569.84
2019-02-07T07:10:41.924Z,100563.82
2019-02-07T07:12:14.592Z,100561.26
2019-02-07T07:13:31.151Z,100561.63
2019-02-07T07:14:56.049Z,100569.08
2019-02-07T07:16:19.271Z,100561.81
2019-02-07T07:17:51.967Z,100568.63
2019-02-07T07:19:18.058Z,100571.64
2019-02-07T07:20:39.038Z,100564.93
2019-02-07T07:22:00.951Z,100566.36
2019-02-07T07:23:29.625Z,100565.98
2019-02-07T07:24:51.691Z,100562.05
2019-02-07T07:26:26.775Z,100564.25
2019-02-07T07:27:48.954Z,100555.66
2019-02-07T07:29:13.889Z,100562.15
2019-02-07T07:30:46.499Z,100567.81
2019-02-07T07:32:28.239Z,100568.27
2019-02-07T07:33:43.113Z,100558.59
2019-02-07T07:35:18.638Z,100564.20
2019-02-07T07:36:56.973Z,100566.03
2019-02-07T07:38:29.889Z,100565.12
2019-02-07T07:39:51.952Z,100561.70
2019-02-07T07:41:21.041Z,100562.23
2019-02-07T07:42:37.526Z,100559.68
2019-02-07T07:43:59.545Z,100554.20
2019-02-07T07:45:16.646Z,100553.83
2019-02-07T07:46:48.795Z,100559.08
2019-02-07T07:48:12.055Z,100570.24
2019-02-07T07:49:34.191Z,100573.20
2019-02-07T07:50:54.783Z,100573.80
2019-02-07T07:52:15.159Z,100572.94
2019-02-07T07:53:47.029Z,100568.31
2019-02-07T07:54:56.896Z,100567.81
2019-02-07T07:56:26.212Z,100578.55
2019-02-07T07:57:42.287Z,100573.43
2019-02-07T07:59:05.306Z,100564.97
2019-02-07T08:00:28.086Z,100568.39
2019-02-07T08:01:49.316Z,100583.80
2019-02-07T08:03:04.183Z,100588.52
2019-02-07T08:04:30.198Z,100579.96
2019-02-07T08:05:45.482Z,100583.84
2019-02-07T08:07:21.250Z,100577.03
2019-02-07T08:08:42.922Z,100578.77
2019-02-07T08:10:05.272Z,100583.06
2019-02-07T08:11:21.432Z,100589.02
2019-02-07T08:12:42.457Z,100581.38
2019-02-07T08:14:12.066Z,100582.70
2019-02-07T08:15:25.646Z,100582.37
2019-02-07T08:16:47.765Z,100581.46
2019-02-07T08:18:29.561Z,100585.75
2019-02-07T08:20:08.245Z,100580.27
2019-02-07T08:21:35.648Z,100585.42
2019-02-07T08:22:57.879Z,100585.80
2019-02-07T08:24:21.259Z,100587.58
2019-02-07T08:25:56.826Z,100586.75
2019-02-07T08:27:23.039Z,100588.45
2019-02-07T08:28:35.686Z,100592.74
2019-02-07T08:29:58.596Z,100599.23
2019-02-07T08:31:25.234Z,100597.12
2019-02-07T08:32:51.225Z,100599.73
2019-02-07T08:34:23.743Z,100595.02
2019-02-07T08:35:56.730Z,100599.81
2019-02-07T08:37:17.843Z,100611.84
2019-02-07T08:38:43.561Z,100605.81
2019-02-07T08:40:15.881Z,100607.58
2019-02-07T08:41:32.118Z,100608.37
2019-02-07T08:42:47.454Z,100610.18
2019-02-07T08:44:13.836Z,100614.48
2019-02-07T08:45:25.871Z,100607.63
2019-02-07T08:46:48.228Z,100625.10
2019-02-07T08:48:23.352Z,100618.70
2019-02-07T08:49:52.915Z,100623.41
2019-02-07T08:51:04.313Z,100618.00
2019-02-07T08:52:26.267Z,100621.89
2019-02-07T08:53:58.635Z,100619.31
2019-02-07T08:55:26.041Z,100622.70
2019-02-07T08:57:07.672Z,100626.92
2019-02-07T08:58:33.587Z,100627.00
2019-02-07T08:59:59.318Z,100630.84
2019-02-07T09:01:31.617Z,100627.01
2019-02-07T09:03:04.580Z,100642.92
2019-02-07T09:04:33.759Z,100639.37
2019-02-07T09:05:57.044Z,100636.92
2019-02-07T09:07:23.449Z,100643.48
2019-02-07T09:08:35.965Z,100644.88
2019-02-07T09:10:11.120Z,100647.00
2019-02-07T09:11:40.514Z,100647.00
2019-02-07T09:13:04.034Z,100643.64
2019-02-07T09:14:25.932Z,100655.30
2019-02-07T09:15:45.713Z,100656.70
2019-02-07T09:17:14.442Z,100649.91
2019-02-07T09:18:52.396Z,100648.67
2019-02-07T09:20:07.695Z,100652.25
2019-02-07T09:21:23.928Z,100658.84
2019-02-07T09:22:56.597Z,100666.65
2019-02-07T09:24:33.199Z,100670.16
2019-02-07T09:25:59.466Z,100669.84
2019-02-07T09:27:29.092Z,100662.77
2019-02-07T09:28:45.326Z,100661.55
2019-02-07T09:30:11.079Z,100661.17
2019-02-07T09:31:33.196Z,100646.67
2019-02-07T09:32:54.785Z,100655.30
2019-02-07T09:34:17.112Z,100656.59
2019-02-07T09:35:40.311Z,100659.09
2019-02-07T09:37:15.967Z,100662.11
2019-02-07T09:38:46.413Z,100653.61
2019-02-07T09:39:57.793Z,100664.81
2019-02-07T09:41:20.970Z,100664.88
2019-02-07T09:42:46.194Z,100673.09
2019-02-07T09:44:12.451Z,100671.05
2019-02-07T09:45:47.902Z,100671.55
2019-02-07T09:47:14.318Z,100675.53
2019-02-07T09:48:38.601Z,100675.47
2019-02-07T09:50:00.941Z,100667.28
2019-02-07T09:51:15.064Z,100675.38
2019-02-07T09:52:47.892Z,100675.38
2019-02-07T09:54:17.095Z,100681.02
2019-02-07T09:55:44.581Z,100679.78
2019-02-07T09:57:07.768Z,100683.36
2019-02-07T09:58:34.255Z,100689.36
2019-02-07T10:00:03.956Z,100682.80
2019-02-07T10:01:33.549Z,100674.69
2019-02-07T10:03:00.078Z,100677.45
2019-02-07T10:04:29.957Z,100676.81
2019-02-07T10:05:59.131Z,100676.70
2019-02-07T10:07:17.012Z,100679.02
2019-02-07T10:08:39.378Z,100678.86
2019-02-07T10:10:01.244Z,100681.69
2019-02-07T10:11:30.744Z,100685.36
2019-02-07T10:12:52.625Z,100680.90
2019-02-07T10:14:14.089Z,100688.26
2019-02-07T10:15:37.629Z,100693.12
2019-02-07T10:17:00.121Z,100688.33
2019-02-07T10:18:35.421Z,100690.60
2019-02-07T10:19:53.316Z,100686.48
2019-02-07T10:21:05.752Z,100689.60
2019-02-07T10:22:27.556Z,100690.92
2019-02-07T10:23:57.302Z,100695.13
2019-02-07T10:25:23.867Z,100694.46
2019-02-07T10:27:05.968Z,100687.61
2019-02-07T10:28:24.336Z,100696.62
2019-02-07T10:29:56.396Z,100695.03
2019-02-07T10:31:19.214Z,100699.34
2019-02-07T10:32:32.158Z,100694.23
2019-02-07T10:34:13.470Z,100693.22
2019-02-07T10:35:46.035Z,100694.27
2019-02-07T10:37:27.368Z,100698.53
2019-02-07T10:38:56.456Z,100705.97
2019-02-07T10:40:28.769Z,100705.11
2019-02-07T10:41:51.989Z,100698.73
2019-02-07T10:43:18.118Z,100691.20
2019-02-07T10:44:47.878Z,100692.59
2019-02-07T10:46:11.470Z,100683.27
2019-02-07T10:47:52.698Z,100680.55
2019-02-07T10:49:22.513Z,100686.88
2019-02-07T10:50:45.118Z,100690.11
2019-02-07T10:51:57.759Z,100682.04
2019-02-07T10:53:22.778Z,100696.73
2019-02-07T10:54:40.725Z,100695.81
2019-02-07T10:56:02.819Z,100696.56
2019-02-07T10:57:28.103Z,100701.64
2019-02-07T10:58:50.278Z,100698.84
2019-02-07T11:00:16.047Z,100697.97
2019-02-07T11:01:38.264Z,100697.23
2019-02-07T11:02:54.874Z,100696.05
2019-02-07T11:04:19.501Z,100690.83
2019-02-07T11:05:41.856Z,100689.05
2019-02-07T11:07:06.709Z,100676.22
2019-02-07T11:08:32.723Z,100679.72
2019-02-07T11:10:08.279Z,100686.41
2019-02-07T11:11:41.098Z,100685.08
2019-02-07T11:13:10.328Z,100685.50
2019-02-07T11:14:51.991Z,100691.53
2019-02-07T11:16:14.938Z,100679.48
2019-02-07T11:17:37.032Z,100683.41
2019-02-07T11:18:56.969Z,100679.20
2019-02-07T11:20:20.287Z,100676.98
2019-02-07T11:21:47.839Z,100678.27
2019-02-07T11:23:14.362Z,100684.30
2019-02-07T11:24:52.085Z,100675.24
2019-02-07T11:26:14.458Z,100676.98
2019-02-07T11:27:46.860Z,100675.16
2019-02-07T11:29:13.069Z,100672.75
2019-02-07T11:30:31.590Z,100672.80
2019-02-07T11:31:44.783Z,100669.39
2019-02-07T11:33:00.706Z,100654.37
2019-02-07T11:34:23.652Z,100665.09
2019-02-07T11:35:45.599Z,100658.25
2019-02-07T11:37:11.916Z,100659.54
2019-02-07T11:38:35.361Z,100660.48
2019-02-07T11:39:46.848Z,100668.66
2019-02-07T11:41:10.435Z,100667.80
2019-02-07T11:42:46.638Z,100661.75
2019-02-07T11:44:09.571Z,100663.77
2019-02-07T11:45:30.910Z,100660.80
2019-02-07T11:46:44.840Z,100663.42
2019-02-07T11:48:06.293Z,100662.08
2019-02-07T11:49:18.028Z,100666.81
2019-02-07T11:50:50.427Z,100674.95
2019-02-07T11:52:07.493Z,100669.83
2019-02-07T11:53:46.372Z,100665.09
2019-02-07T11:54:59.865Z,100661.22
2019-02-07T11:56:28.540Z,100665.58
2019-02-07T11:57:50.916Z,100656.95
2019-02-07T11:59:13.209Z,100668.18
2019-02-07T12:00:29.786Z,100667.68
2019-02-07T12:01:47.419Z,100663.64
2019-02-07T12:03:19.818Z,100663.69
2019-02-07T12:04:35.127Z,100664.98
2019-02-07T12:05:57.204Z,100656.27
2019-02-07T12:07:18.958Z,100658.85
2019-02-07T12:08:41.058Z,100646.53
2019-02-07T12:10:02.522Z,100665.87
2019-02-07T12:11:29.585Z,100653.87
2019-02-07T12:12:49.323Z,100657.41
2019-02-07T12:14:16.686Z,100653.87
2019-02-07T12:15:42.796Z,100651.65
2019-02-07T12:17:01.946Z,100649.94
2019-02-07T12:18:19.280Z,100646.44
2019-02-07T12:19:45.517Z,100644.30
2019-02-07T12:21:14.651Z,100640.81
2019-02-07T12:22:29.646Z,100644.28
2019-02-07T12:23:52.059Z,100635.95
2019-02-07T12:25:27.815Z,100632.70
2019-02-07T12:26:54.279Z,100630.66
2019-02-07T12:28:12.466Z,100636.67
2019-02-07T12:29:32.031Z,100631.99
2019-02-07T12:30:58.351Z,100631.53
2019-02-07T12:32:19.863Z,100634.13
2019-02-07T12:33:41.745Z,100636.27
2019-02-07T12:35:14.224Z,100637.12
2019-02-07T12:36:35.661Z,100635.42
2019-02-07T12:37:58.632Z,100637.52
2019-02-07T12:39:31.439Z,100636.25
2019-02-07T12:40:56.939Z,100641.41
2019-02-07T12:42:27.709Z,100645.33
2019-02-07T12:43:50.898Z,100649.19
2019-02-07T12:45:13.643Z,100648.75
2019-02-07T12:46:46.669Z,100647.44
2019-02-07T12:48:09.449Z,100657.17
2019-02-07T12:49:29.485Z,100655.83
2019-02-07T12:50:56.150Z,100651.14
2019-02-07T12:52:10.085Z,100655.42
2019-02-07T12:53:39.102Z,100637.42
2019-02-07T12:54:57.497Z,100649.88
2019-02-07T12:56:18.186Z,100645.55
2019-02-07T12:58:00.547Z,100648.95
2019-02-07T12:59:32.626Z,100648.50
2019-02-07T13:00:56.842Z,100645.53
2019-02-07T13:02:18.898Z,100652.40
2019-02-07T13:03:43.219Z,100639.02
2019-02-07T13:05:05.678Z,100647.53
2019-02-07T13:06:28.087Z,100639.02
2019-02-07T13:07:53.225Z,100639.41
2019-02-07T13:09:17.253Z,100648.86
2019-02-07T13:10:46.481Z,100640.70
2019-02-07T13:12:03.169Z,100644.55
2019-02-07T13:13:17.943Z,100643.24
2019-02-07T13:14:53.751Z,100635.45
2019-02-07T13:16:12.292Z,100635.45
2019-02-07T13:17:37.369Z,100635.44
2019-02-07T13:18:55.034Z,100633.34
2019-02-07T13:20:18.448Z,100626.80
2019-02-07T13:21:41.926Z,100627.24
2019-02-07T13:23:05.162Z,100620.73
2019-02-07T13:24:27.555Z,100619.00
2019-02-07T13:26:05.972Z,100622.09
2019-02-07T13:27:28.598Z,100616.16
2019-02-07T13:28:47.209Z,100611.08
2019-02-07T13:30:08.764Z,100612.35
2019-02-07T13:31:37.780Z,100605.08
2019-02-07T13:33:10.224Z,100614.99
2019-02-07T13:34:32.185Z,100614.68
2019-02-07T13:35:54.218Z,100613.42
2019-02-07T13:37:17.777Z,100616.80
2019-02-07T13:38:39.466Z,100617.29
2019-02-07T13:40:01.771Z,100619.45
2019-02-07T13:41:22.707Z,100618.16
2019-02-07T13:42:46.188Z,100623.73
2019-02-07T13:44:13.289Z,100615.14
2019-02-07T13:45:28.066Z,100621.48
2019-02-07T13:46:51.510Z,100617.63
2019-02-07T13:48:20.698Z,100624.19
2019-02-07T13:49:51.716Z,100620.73
2019-02-07T13:51:23.298Z,100623.25
2019-02-07T13:52:55.746Z,100621.45
2019-02-07T13:54:11.016Z,100625.74
2019-02-07T13:55:52.945Z,100632.25
2019-02-07T13:57:15.071Z,100632.20
2019-02-07T13:58:34.602Z,100630.11
2019-02-07T14:00:13.133Z,100627.14
2019-02-07T14:01:35.813Z,100634.03
2019-02-07T14:03:05.620Z,100625.93
2019-02-07T14:04:37.807Z,100639.20
2019-02-07T14:06:04.124Z,100636.56
2019-02-07T14:07:30.097Z,100633.13
2019-02-07T14:08:52.541Z,100620.61
2019-02-07T14:10:18.715Z,100629.11
2019-02-07T14:11:40.874Z,100633.39
2019-02-07T14:13:07.362Z,100636.39
2019-02-07T14:14:18.213Z,100626.91
2019-02-07T14:15:44.823Z,100631.20
2019-02-07T14:17:14.483Z,100635.44
2019-02-07T14:18:56.193Z,100629.89
2019-02-07T14:20:19.010Z,100634.11
2019-02-07T14:21:41.499Z,100645.65
2019-02-07T14:23:10.754Z,100636.57
2019-02-07T14:24:24.702Z,100642.15
2019-02-07T14:25:40.841Z,100640.42
2019-02-07T14:27:04.070Z,100640.86
2019-02-07T14:28:14.725Z,100644.81
2019-02-07T14:29:47.352Z,100645.75
2019-02-07T14:31:09.904Z,100644.37
2019-02-07T14:32:36.257Z,100646.92
2019-02-07T14:33:58.853Z,100643.08
2019-02-07T14:35:15.209Z,100645.33
2019-02-07T14:36:45.597Z,100653.53
2019-02-07T14:38:10.369Z,100653.15
2019-02-07T14:39:32.528Z,100642.96
2019-02-07T14:40:51.071Z,100658.47
2019-02-07T14:42:23.865Z,100658.58
2019-02-07T14:43:38.684Z,100652.53
2019-02-07T14:44:54.894Z,100653.34
2019-02-07T14:46:14.948Z,100656.40
2019-02-07T14:47:19.089Z,100664.55
2019-02-07T14:48:27.271Z,100669.69
2019-02-07T14:49:32.159Z,100670.91
2019-02-07T14:50:36.664Z,100675.62
2019-02-07T14:51:41.634Z,100669.08
2019-02-07T14:52:46.951Z,100668.22
2019-02-07T14:53:51.248Z,100673.72
2019-02-07T14:54:57.533Z,100683.15
2019-02-07T14:56:02.518Z,100684.49
2019-02-07T14:57:07.361Z,100688.72
2019-02-07T14:58:11.974Z,100681.01
2019-02-07T14:59:16.523Z,100689.11
2019-02-07T15:00:23.085Z,100688.66
2019-02-07T15:01:28.229Z,100683.89
2019-02-07T15:02:32.803Z,100687.77
2019-02-07T15:03:37.342Z,100690.72
2019-02-07T15:04:41.670Z,100690.66
2019-02-07T15:05:46.286Z,100691.05
2019-02-07T15:06:50.982Z,100692.34
2019-02-07T15:07:55.558Z,100687.16
2019-02-07T15:09:00.714Z,100698.29
2019-02-07T15:10:06.346Z,100694.81
2019-02-07T15:11:11.329Z,100691.37
2019-02-07T15:12:15.891Z,100693.92
2019-02-07T15:13:20.019Z,100695.20
2019-02-07T15:14:24.628Z,100698.20
2019-02-07T15:15:29.189Z,100699.50
2019-02-07T15:16:33.351Z,100696.56
2019-02-07T15:17:38.227Z,100684.17
2019-02-07T15:18:42.540Z,100690.23
2019-02-07T15:19:47.395Z,100690.70
2019-02-07T15:20:52.538Z,100687.64
2019-02-07T15:21:56.838Z,100684.19
2019-02-07T15:23:01.440Z,100691.43
2019-02-07T15:24:08.424Z,100695.27
2019-02-07T15:25:12.853Z,100696.11
2019-02-07T15:26:17.773Z,100697.38
2019-02-07T15:27:23.060Z,100702.49
2019-02-07T15:28:27.944Z,100706.77
2019-02-07T15:29:32.232Z,100701.20
2019-02-07T15:30:36.711Z,100697.77
2019-02-07T15:31:41.040Z,100703.78
2019-02-07T15:32:45.111Z,100700.34
2019-02-07T15:33:49.508Z,100691.77
2019-02-07T15:34:54.108Z,100702.49
2019-02-07T15:35:59.026Z,100698.18
2019-02-07T15:37:03.724Z,100691.74
2019-02-07T15:38:08.336Z,100692.17
2019-02-07T15:39:14.869Z,100692.19
2019-02-07T15:40:19.797Z,100695.61
2019-02-07T15:41:24.998Z,100696.88
2019-02-07T15:42:29.651Z,100690.00
2019-02-07T15:43:34.510Z,100684.83
2019-02-07T15:44:39.187Z,100687.83
2019-02-07T15:45:44.441Z,100686.08
2019-02-07T15:46:49.576Z,100686.92
2019-02-07T15:47:54.745Z,100686.06
2019-02-07T15:48:59.127Z,100691.63
2019-02-07T15:50:03.713Z,100692.44
2019-02-07T15:51:08.321Z,100689.47
2019-02-07T15:52:12.921Z,100692.81
2019-02-07T15:53:17.294Z,100703.11
2019-02-07T15:54:21.899Z,100694.13
2019-02-07T15:55:26.201Z,100695.84
2019-02-07T15:56:30.891Z,100696.68
2019-02-07T15:57:35.484Z,100707.43